sensor_id;sensor_type;location;lat;lon;timestamp;pressure;altitude;pressure_sealevel;temperature;humidity
10668;BME280;5382;42.136;24.796;2023-04-22T00:01:07;99657.66;;;13.20;100.00
10668;BME280;5382;42.136;24.796;2023-04-22T00:03:33;99660.56;;;13.17;100.00
10668;BME280;5382;42.136;24.796;2023-04-22T00:06:00;99657.38;;;13.23;100.00
10668;BME280;5382;42.136;24.796;2023-04-22T00:08:46;99662.97;;;13.20;100.00
10668;BME280;5382;42.136;24.796;2023-04-22T00:11:13;99655.81;;;13.21;100.00
10668;BME280;5382;42.136;24.796;2023-04-22T00:13:40;99655.44;;;13.25;100.00
10668;BME280;5382;42.136;24.796;2023-04-22T00:16:07;99630.75;;;13.14;100.00
10668;BME280;5382;42.136;24.796;2023-04-22T00:18:34;99646.81;;;13.33;100.00
10668;BME280;5382;42.136;24.796;2023-04-22T00:21:01;99640.47;;;13.24;100.00
10668;BME280;5382;42.136;24.796;2023-04-22T00:23:28;99645.91;;;13.23;100.00
10668;BME280;5382;42.136;24.796;2023-04-22T00:25:56;99648.97;;;13.18;100.00
10668;BME280;5382;42.136;24.796;2023-04-22T00:28:23;99645.19;;;13.21;100.00
10668;BME280;5382;42.136;24.796;2023-04-22T00:30:50;99652.72;;;13.16;100.00
10668;BME280;5382;42.136;24.796;2023-04-22T00:33:16;99652.34;;;13.20;100.00
10668;BME280;5382;42.136;24.796;2023-04-22T00:35:44;99643.88;;;13.36;100.00
10668;BME280;5382;42.136;24.796;2023-04-22T00:38:11;99641.28;;;13.46;100.00
10668;BME280;5382;42.136;24.796;2023-04-22T00:40:38;99642.16;;;13.56;100.00
10668;BME280;5382;42.136;24.796;2023-04-22T00:43:07;99630.25;;;13.50;100.00
10668;BME280;5382;42.136;24.796;2023-04-22T00:45:35;99642.66;;;13.50;100.00
10668;BME280;5382;42.136;24.796;2023-04-22T00:48:02;99642.59;;;13.61;100.00
10668;BME280;5382;42.136;24.796;2023-04-22T00:50:29;99648.84;;;13.60;100.00
10668;BME280;5382;42.136;24.796;2023-04-22T00:52:55;99646.19;;;13.60;100.00
10668;BME280;5382;42.136;24.796;2023-04-22T00:55:22;99650.00;;;13.67;100.00
10668;BME280;5382;42.136;24.796;2023-04-22T00:57:51;99652.81;;;13.66;100.00
10668;BME280;5382;42.136;24.796;2023-04-22T01:00:21;99657.00;;;13.68;100.00
10668;BME280;5382;42.136;24.796;2023-04-22T01:02:51;99656.03;;;13.69;100.00
10668;BME280;5382;42.136;24.796;2023-04-22T01:05:18;99653.34;;;13.60;100.00
10668;BME280;5382;42.136;24.796;2023-04-22T01:07:45;99664.91;;;13.49;100.00
10668;BME280;5382;42.136;24.796;2023-04-22T01:10:12;99660.88;;;13.55;100.00
10668;BME280;5382;42.136;24.796;2023-04-22T01:12:39;99658.50;;;13.51;100.00
10668;BME280;5382;42.136;24.796;2023-04-22T01:15:07;99659.31;;;13.52;100.00
10668;BME280;5382;42.136;24.796;2023-04-22T01:17:35;99653.31;;;13.50;100.00
10668;BME280;5382;42.136;24.796;2023-04-22T01:20:03;99656.16;;;13.58;100.00
10668;BME280;5382;42.136;24.796;2023-04-22T01:22:34;99653.63;;;13.57;100.00
10668;BME280;5382;42.136;24.796;2023-04-22T01:25:03;99662.16;;;13.60;100.00
10668;BME280;5382;42.136;24.796;2023-04-22T01:27:30;99654.72;;;13.54;100.00
10668;BME280;5382;42.136;24.796;2023-04-22T01:29:57;99653.44;;;13.48;100.00
10668;BME280;5382;42.136;24.796;2023-04-22T01:32:24;99652.34;;;13.51;100.00
10668;BME280;5382;42.136;24.796;2023-04-22T01:34:51;99642.66;;;13.50;100.00
10668;BME280;5382;42.136;24.796;2023-04-22T01:37:18;99643.38;;;13.52;100.00
10668;BME280;5382;42.136;24.796;2023-04-22T01:39:46;99655.53;;;13.45;100.00
10668;BME280;5382;42.136;24.796;2023-04-22T01:42:14;99656.38;;;13.45;100.00
10668;BME280;5382;42.136;24.796;2023-04-22T01:44:41;99651.06;;;13.45;100.00
10668;BME280;5382;42.136;24.796;2023-04-22T01:47:08;99654.41;;;13.47;100.00
10668;BME280;5382;42.136;24.796;2023-04-22T01:49:34;99652.84;;;13.45;100.00
10668;BME280;5382;42.136;24.796;2023-04-22T01:52:01;99655.22;;;13.38;100.00
10668;BME280;5382;42.136;24.796;2023-04-22T01:54:28;99646.44;;;13.38;100.00
10668;BME280;5382;42.136;24.796;2023-04-22T01:56:55;99644.66;;;13.48;100.00
10668;BME280;5382;42.136;24.796;2023-04-22T01:59:24;99641.13;;;13.47;100.00
10668;BME280;5382;42.136;24.796;2023-04-22T02:01:51;99637.19;;;13.42;100.00
10668;BME280;5382;42.136;24.796;2023-04-22T02:04:17;99644.66;;;13.48;100.00
10668;BME280;5382;42.136;24.796;2023-04-22T02:06:44;99640.94;;;13.29;100.00
10668;BME280;5382;42.136;24.796;2023-04-22T02:09:12;99638.88;;;13.12;100.00
10668;BME280;5382;42.136;24.796;2023-04-22T02:11:39;99633.25;;;13.05;100.00
10668;BME280;5382;42.136;24.796;2023-04-22T02:14:06;99635.94;;;12.84;100.00
10668;BME280;5382;42.136;24.796;2023-04-22T02:16:34;99636.75;;;12.75;100.00
10668;BME280;5382;42.136;24.796;2023-04-22T02:19:01;99632.81;;;12.79;100.00
10668;BME280;5382;42.136;24.796;2023-04-22T02:21:28;99633.94;;;12.77;100.00
10668;BME280;5382;42.136;24.796;2023-04-22T02:23:56;99632.53;;;12.73;100.00
10668;BME280;5382;42.136;24.796;2023-04-22T02:26:23;99634.09;;;12.75;100.00
10668;BME280;5382;42.136;24.796;2023-04-22T02:28:50;99635.38;;;12.81;100.00
10668;BME280;5382;42.136;24.796;2023-04-22T02:31:17;99637.75;;;12.84;100.00
10668;BME280;5382;42.136;24.796;2023-04-22T02:33:45;99638.28;;;12.78;100.00
10668;BME280;5382;42.136;24.796;2023-04-22T02:36:12;99635.47;;;12.79;100.00
10668;BME280;5382;42.136;24.796;2023-04-22T02:38:39;99632.38;;;12.74;100.00
10668;BME280;5382;42.136;24.796;2023-04-22T02:41:05;99641.84;;;12.67;100.00
10668;BME280;5382;42.136;24.796;2023-04-22T02:43:32;99646.38;;;12.55;100.00
10668;BME280;5382;42.136;24.796;2023-04-22T02:45:59;99647.47;;;12.53;100.00
10668;BME280;5382;42.136;24.796;2023-04-22T02:48:26;99650.50;;;12.48;100.00
10668;BME280;5382;42.136;24.796;2023-04-22T02:50:54;99643.34;;;12.60;100.00
10668;BME280;5382;42.136;24.796;2023-04-22T02:53:21;99648.13;;;12.66;100.00
10668;BME280;5382;42.136;24.796;2023-04-22T02:55:47;99644.09;;;12.72;100.00
10668;BME280;5382;42.136;24.796;2023-04-22T02:58:16;99656.00;;;12.77;100.00
10668;BME280;5382;42.136;24.796;2023-04-22T03:00:43;99644.69;;;12.75;100.00
10668;BME280;5382;42.136;24.796;2023-04-22T03:03:10;99650.56;;;12.79;100.00
10668;BME280;5382;42.136;24.796;2023-04-22T03:05:37;99657.72;;;12.78;100.00
10668;BME280;5382;42.136;24.796;2023-04-22T03:08:05;99646.94;;;12.80;100.00
10668;BME280;5382;42.136;24.796;2023-04-22T03:10:32;99651.16;;;12.82;100.00
10668;BME280;5382;42.136;24.796;2023-04-22T03:12:59;99653.53;;;12.85;100.00
10668;BME280;5382;42.136;24.796;2023-04-22T03:15:25;99652.13;;;12.81;100.00
10668;BME280;5382;42.136;24.796;2023-04-22T03:17:52;99644.69;;;12.75;100.00
10668;BME280;5382;42.136;24.796;2023-04-22T03:20:19;99651.69;;;12.76;100.00
10668;BME280;5382;42.136;24.796;2023-04-22T03:22:46;99650.69;;;12.77;100.00
10668;BME280;5382;42.136;24.796;2023-04-22T03:25:14;99650.47;;;12.80;100.00
10668;BME280;5382;42.136;24.796;2023-04-22T03:27:41;99640.34;;;12.74;100.00
10668;BME280;5382;42.136;24.796;2023-04-22T03:30:08;99649.50;;;12.60;100.00
10668;BME280;5382;42.136;24.796;2023-04-22T03:32:35;99648.50;;;12.40;100.00
10668;BME280;5382;42.136;24.796;2023-04-22T03:35:02;99654.56;;;12.31;100.00
10668;BME280;5382;42.136;24.796;2023-04-22T03:37:29;99662.31;;;12.23;100.00
10668;BME280;5382;42.136;24.796;2023-04-22T03:39:56;99676.66;;;12.20;100.00
10668;BME280;5382;42.136;24.796;2023-04-22T03:42:24;99675.88;;;12.09;100.00
10668;BME280;5382;42.136;24.796;2023-04-22T03:44:51;99675.13;;;12.18;100.00
10668;BME280;5382;42.136;24.796;2023-04-22T03:47:18;99681.66;;;12.14;100.00
10668;BME280;5382;42.136;24.796;2023-04-22T03:49:45;99675.13;;;12.18;100.00
10668;BME280;5382;42.136;24.796;2023-04-22T03:52:11;99671.25;;;12.22;100.00
10668;BME280;5382;42.136;24.796;2023-04-22T03:54:38;99682.34;;;12.27;100.00
10668;BME280;5382;42.136;24.796;2023-04-22T03:57:05;99692.31;;;12.35;100.00
10668;BME280;5382;42.136;24.796;2023-04-22T03:59:33;99687.75;;;12.26;100.00
10668;BME280;5382;42.136;24.796;2023-04-22T04:02:00;99687.78;;;12.14;100.00
10668;BME280;5382;42.136;24.796;2023-04-22T04:04:27;99691.31;;;12.04;100.00
10668;BME280;5382;42.136;24.796;2023-04-22T04:06:54;99693.72;;;12.07;100.00
10668;BME280;5382;42.136;24.796;2023-04-22T04:09:21;99707.03;;;11.95;100.00
10668;BME280;5382;42.136;24.796;2023-04-22T04:11:47;99707.50;;;11.89;100.00
10668;BME280;5382;42.136;24.796;2023-04-22T04:14:14;99710.88;;;11.91;100.00
10668;BME280;5382;42.136;24.796;2023-04-22T04:16:43;99709.16;;;11.79;100.00
10668;BME280;5382;42.136;24.796;2023-04-22T04:19:10;99692.19;;;11.70;100.00
10668;BME280;5382;42.136;24.796;2023-04-22T04:21:36;99711.47;;;11.84;100.00
10668;BME280;5382;42.136;24.796;2023-04-22T04:24:04;99710.28;;;11.88;100.00
10668;BME280;5382;42.136;24.796;2023-04-22T04:26:31;99710.16;;;11.89;100.00
10668;BME280;5382;42.136;24.796;2023-04-22T04:28:59;99713.78;;;11.88;100.00
10668;BME280;5382;42.136;24.796;2023-04-22T04:31:26;99715.78;;;11.85;100.00
10668;BME280;5382;42.136;24.796;2023-04-22T04:33:54;99717.50;;;11.97;100.00
10668;BME280;5382;42.136;24.796;2023-04-22T04:36:21;99710.47;;;12.07;100.00
10668;BME280;5382;42.136;24.796;2023-04-22T04:38:50;99718.22;;;11.99;100.00
10668;BME280;5382;42.136;24.796;2023-04-22T04:41:17;99714.69;;;12.10;100.00
10668;BME280;5382;42.136;24.796;2023-04-22T04:43:45;99711.41;;;12.17;100.00
10668;BME280;5382;42.136;24.796;2023-04-22T04:46:12;99715.72;;;12.30;100.00
10668;BME280;5382;42.136;24.796;2023-04-22T04:48:39;99722.69;;;12.42;100.00
10668;BME280;5382;42.136;24.796;2023-04-22T04:51:08;99726.25;;;12.52;100.00
10668;BME280;5382;42.136;24.796;2023-04-22T04:53:36;99729.16;;;12.49;100.00
10668;BME280;5382;42.136;24.796;2023-04-22T04:56:03;99727.94;;;12.53;100.00
10668;BME280;5382;42.136;24.796;2023-04-22T04:58:29;99727.50;;;12.69;100.00
10668;BME280;5382;42.136;24.796;2023-04-22T05:00:56;99726.28;;;12.73;100.00
10668;BME280;5382;42.136;24.796;2023-04-22T05:03:23;99733.97;;;12.76;100.00
10668;BME280;5382;42.136;24.796;2023-04-22T05:05:50;99727.84;;;12.76;100.00
10668;BME280;5382;42.136;24.796;2023-04-22T05:08:18;99735.59;;;12.68;100.00
10668;BME280;5382;42.136;24.796;2023-04-22T05:10:45;99727.41;;;12.59;100.00
10668;BME280;5382;42.136;24.796;2023-04-22T05:13:12;99741.41;;;12.61;100.00
10668;BME280;5382;42.136;24.796;2023-04-22T05:15:38;99736.94;;;12.62;100.00
10668;BME280;5382;42.136;24.796;2023-04-22T05:18:05;99738.13;;;12.69;100.00
10668;BME280;5382;42.136;24.796;2023-04-22T05:20:32;99730.94;;;12.81;100.00
10668;BME280;5382;42.136;24.796;2023-04-22T05:22:59;99734.81;;;12.77;100.00
10668;BME280;5382;42.136;24.796;2023-04-22T05:25:27;99738.72;;;12.73;100.00
10668;BME280;5382;42.136;24.796;2023-04-22T05:27:54;99738.84;;;12.71;100.00
10668;BME280;5382;42.136;24.796;2023-04-22T05:30:21;99738.31;;;12.77;100.00
10668;BME280;5382;42.136;24.796;2023-04-22T05:32:47;99743.81;;;12.85;100.00
10668;BME280;5382;42.136;24.796;2023-04-22T05:35:14;99749.13;;;12.85;100.00
10668;BME280;5382;42.136;24.796;2023-04-22T05:37:41;99750.56;;;12.90;100.00
10668;BME280;5382;42.136;24.796;2023-04-22T05:40:08;99754.41;;;12.97;100.00
10668;BME280;5382;42.136;24.796;2023-04-22T05:42:37;99750.56;;;12.90;100.00
10668;BME280;5382;42.136;24.796;2023-04-22T05:45:04;99750.22;;;12.83;100.00
10668;BME280;5382;42.136;24.796;2023-04-22T05:47:31;99747.19;;;12.87;100.00
10668;BME280;5382;42.136;24.796;2023-04-22T05:49:58;99743.50;;;13.00;100.00
10668;BME280;5382;42.136;24.796;2023-04-22T05:52:24;99751.03;;;13.16;100.00
10668;BME280;5382;42.136;24.796;2023-04-22T05:54:51;99746.31;;;13.19;100.00
10668;BME280;5382;42.136;24.796;2023-04-22T05:57:18;99751.84;;;13.27;100.00
10668;BME280;5382;42.136;24.796;2023-04-22T05:59:46;99750.00;;;13.28;100.00
10668;BME280;5382;42.136;24.796;2023-04-22T06:02:13;99747.44;;;13.47;100.00
10668;BME280;5382;42.136;24.796;2023-04-22T06:04:40;99755.03;;;13.52;100.00
10668;BME280;5382;42.136;24.796;2023-04-22T06:07:07;99745.00;;;13.65;100.00
10668;BME280;5382;42.136;24.796;2023-04-22T06:09:34;99750.75;;;13.70;100.00
10668;BME280;5382;42.136;24.796;2023-04-22T06:12:01;99751.41;;;13.84;100.00
10668;BME280;5382;42.136;24.796;2023-04-22T06:14:27;99727.91;;;13.89;100.00
10668;BME280;5382;42.136;24.796;2023-04-22T06:16:56;99748.06;;;14.01;100.00
10668;BME280;5382;42.136;24.796;2023-04-22T06:19:23;99743.59;;;14.11;100.00
10668;BME280;5382;42.136;24.796;2023-04-22T06:21:50;99742.50;;;14.14;100.00
10668;BME280;5382;42.136;24.796;2023-04-22T06:24:17;99742.81;;;14.21;100.00
10668;BME280;5382;42.136;24.796;2023-04-22T06:26:43;99744.38;;;14.33;100.00
10668;BME280;5382;42.136;24.796;2023-04-22T06:29:10;99743.94;;;14.28;100.00
10668;BME280;5382;42.136;24.796;2023-04-22T06:31:37;99740.00;;;14.32;100.00
10668;BME280;5382;42.136;24.796;2023-04-22T06:34:05;99750.66;;;14.32;100.00
10668;BME280;5382;42.136;24.796;2023-04-22T06:36:32;99747.59;;;14.36;100.00
10668;BME280;5382;42.136;24.796;2023-04-22T06:39:01;99741.84;;;14.41;100.00
10668;BME280;5382;42.136;24.796;2023-04-22T06:41:29;99732.00;;;14.22;100.00
10668;BME280;5382;42.136;24.796;2023-04-22T06:43:57;99745.47;;;14.40;100.00
10668;BME280;5382;42.136;24.796;2023-04-22T06:46:23;99741.97;;;14.39;100.00
10668;BME280;5382;42.136;24.796;2023-04-22T06:48:50;99739.91;;;14.43;100.00
10668;BME280;5382;42.136;24.796;2023-04-22T06:51:18;99737.50;;;14.40;100.00
10668;BME280;5382;42.136;24.796;2023-04-22T06:53:45;99741.28;;;14.47;100.00
10668;BME280;5382;42.136;24.796;2023-04-22T06:56:12;99727.69;;;14.50;100.00
10668;BME280;5382;42.136;24.796;2023-04-22T06:58:40;99743.13;;;14.66;100.00
10668;BME280;5382;42.136;24.796;2023-04-22T07:01:06;99742.31;;;14.75;100.00
10668;BME280;5382;42.136;24.796;2023-04-22T07:03:33;99754.09;;;14.82;100.00
10668;BME280;5382;42.136;24.796;2023-04-22T07:06:00;99749.84;;;14.99;100.00
10668;BME280;5382;42.136;24.796;2023-04-22T07:08:28;99749.28;;;15.05;100.00
10668;BME280;5382;42.136;24.796;2023-04-22T07:10:55;99750.22;;;15.24;100.00
10668;BME280;5382;42.136;24.796;2023-04-22T07:13:23;99757.50;;;15.32;100.00
10668;BME280;5382;42.136;24.796;2023-04-22T07:15:51;99751.09;;;15.15;100.00
10668;BME280;5382;42.136;24.796;2023-04-22T07:18:18;99747.56;;;15.34;100.00
10668;BME280;5382;42.136;24.796;2023-04-22T07:20:45;99739.97;;;15.29;100.00
10668;BME280;5382;42.136;24.796;2023-04-22T07:23:12;99759.06;;;15.34;100.00
10668;BME280;5382;42.136;24.796;2023-04-22T07:25:40;99767.75;;;15.36;100.00
10668;BME280;5382;42.136;24.796;2023-04-22T07:28:07;99760.28;;;15.40;100.00
10668;BME280;5382;42.136;24.796;2023-04-22T07:30:33;99763.91;;;15.48;100.00
10668;BME280;5382;42.136;24.796;2023-04-22T07:33:00;99767.13;;;15.62;100.00
10668;BME280;5382;42.136;24.796;2023-04-22T07:35:27;99765.94;;;15.74;100.00
10668;BME280;5382;42.136;24.796;2023-04-22T07:37:55;99762.13;;;15.86;100.00
10668;BME280;5382;42.136;24.796;2023-04-22T07:40:22;99756.56;;;15.98;100.00
10668;BME280;5382;42.136;24.796;2023-04-22T07:42:50;99761.56;;;16.10;100.00
10668;BME280;5382;42.136;24.796;2023-04-22T07:45:17;99759.16;;;16.17;100.00
10668;BME280;5382;42.136;24.796;2023-04-22T07:47:44;99758.53;;;16.23;100.00
10668;BME280;5382;42.136;24.796;2023-04-22T07:50:11;99762.59;;;16.27;100.00
10668;BME280;5382;42.136;24.796;2023-04-22T07:52:37;99762.75;;;16.44;100.00
10668;BME280;5382;42.136;24.796;2023-04-22T07:55:05;99759.78;;;16.65;100.00
10668;BME280;5382;42.136;24.796;2023-04-22T07:57:32;99763.81;;;16.78;100.00
10668;BME280;5382;42.136;24.796;2023-04-22T08:00:05;99746.69;;;16.89;100.00
10668;BME280;5382;42.136;24.796;2023-04-22T08:02:32;99749.34;;;16.89;100.00
10668;BME280;5382;42.136;24.796;2023-04-22T08:04:59;99727.91;;;16.81;100.00
10668;BME280;5382;42.136;24.796;2023-04-22T08:07:26;99739.75;;;16.78;100.00
10668;BME280;5382;42.136;24.796;2023-04-22T08:09:53;99748.84;;;16.86;100.00
10668;BME280;5382;42.136;24.796;2023-04-22T08:12:21;99756.91;;;16.94;100.00
10668;BME280;5382;42.136;24.796;2023-04-22T08:14:48;99755.28;;;17.01;100.00
10668;BME280;5382;42.136;24.796;2023-04-22T08:17:16;99738.19;;;17.12;100.00
10668;BME280;5382;42.136;24.796;2023-04-22T08:19:46;99745.16;;;17.31;100.00
10668;BME280;5382;42.136;24.796;2023-04-22T08:22:13;99735.19;;;17.15;100.00
10668;BME280;5382;42.136;24.796;2023-04-22T08:24:40;99736.09;;;17.32;100.00
10668;BME280;5382;42.136;24.796;2023-04-22T08:27:07;99735.03;;;17.42;100.00
10668;BME280;5382;42.136;24.796;2023-04-22T08:29:34;99722.09;;;17.30;100.00
10668;BME280;5382;42.136;24.796;2023-04-22T08:32:01;99736.97;;;17.32;100.00
10668;BME280;5382;42.136;24.796;2023-04-22T08:34:30;99733.81;;;17.37;100.00
10668;BME280;5382;42.136;24.796;2023-04-22T08:36:56;99728.16;;;17.40;100.00
10668;BME280;5382;42.136;24.796;2023-04-22T08:39:23;99725.53;;;17.48;100.00
10668;BME280;5382;42.136;24.796;2023-04-22T08:41:50;99720.31;;;17.47;100.00
10668;BME280;5382;42.136;24.796;2023-04-22T08:44:18;99725.38;;;17.58;100.00
10668;BME280;5382;42.136;24.796;2023-04-22T08:46:47;99726.00;;;17.78;100.00
10668;BME280;5382;42.136;24.796;2023-04-22T08:49:15;99705.31;;;17.88;100.00
10668;BME280;5382;42.136;24.796;2023-04-22T08:51:44;99716.25;;;18.03;100.00
10668;BME280;5382;42.136;24.796;2023-04-22T08:54:11;99706.72;;;18.17;100.00
10668;BME280;5382;42.136;24.796;2023-04-22T08:56:39;99717.84;;;18.38;100.00
10668;BME280;5382;42.136;24.796;2023-04-22T08:59:08;99712.63;;;18.45;100.00
10668;BME280;5382;42.136;24.796;2023-04-22T09:01:36;99715.16;;;18.63;100.00
10668;BME280;5382;42.136;24.796;2023-04-22T09:04:04;99707.50;;;18.76;100.00
10668;BME280;5382;42.136;24.796;2023-04-22T09:06:32;99695.22;;;18.73;100.00
10668;BME280;5382;42.136;24.796;2023-04-22T09:09:00;99695.72;;;18.61;100.00
10668;BME280;5382;42.136;24.796;2023-04-22T09:11:27;99707.13;;;18.63;100.00
10668;BME280;5382;42.136;24.796;2023-04-22T09:13:54;99698.47;;;18.85;100.00
10668;BME280;5382;42.136;24.796;2023-04-22T09:16:21;99692.06;;;19.11;100.00
10668;BME280;5382;42.136;24.796;2023-04-22T09:18:48;99693.88;;;19.18;100.00
10668;BME280;5382;42.136;24.796;2023-04-22T09:21:15;99687.88;;;19.08;100.00
10668;BME280;5382;42.136;24.796;2023-04-22T09:23:45;99677.94;;;19.25;100.00
10668;BME280;5382;42.136;24.796;2023-04-22T09:26:13;99682.13;;;19.20;100.00
10668;BME280;5382;42.136;24.796;2023-04-22T09:28:48;99677.56;;;19.36;100.00
10668;BME280;5382;42.136;24.796;2023-04-22T09:31:15;99676.81;;;19.67;100.00
10668;BME280;5382;42.136;24.796;2023-04-22T09:33:46;99680.81;;;19.63;100.00
10668;BME280;5382;42.136;24.796;2023-04-22T09:36:13;99675.09;;;19.66;100.00
10668;BME280;5382;42.136;24.796;2023-04-22T09:38:55;99664.72;;;19.71;100.00
10668;BME280;5382;42.136;24.796;2023-04-22T09:41:30;99662.66;;;19.81;100.00
10668;BME280;5382;42.136;24.796;2023-04-22T09:43:58;99656.50;;;19.73;100.00
10668;BME280;5382;42.136;24.796;2023-04-22T09:46:26;99649.06;;;19.83;100.00
10668;BME280;5382;42.136;24.796;2023-04-22T09:48:55;99659.53;;;20.01;100.00
10668;BME280;5382;42.136;24.796;2023-04-22T09:51:23;99655.91;;;20.17;100.00
10668;BME280;5382;42.136;24.796;2023-04-22T09:53:57;99643.38;;;20.32;100.00
10668;BME280;5382;42.136;24.796;2023-04-22T09:56:44;99639.50;;;20.49;100.00
10668;BME280;5382;42.136;24.796;2023-04-22T09:59:13;99644.06;;;20.72;100.00
10668;BME280;5382;42.136;24.796;2023-04-22T10:01:41;99621.75;;;20.86;100.00
10668;BME280;5382;42.136;24.796;2023-04-22T10:04:08;99625.22;;;20.72;100.00
10668;BME280;5382;42.136;24.796;2023-04-22T10:06:35;99624.78;;;20.98;100.00
10668;BME280;5382;42.136;24.796;2023-04-22T10:09:03;99635.72;;;20.82;100.00
10668;BME280;5382;42.136;24.796;2023-04-22T10:11:30;99625.16;;;20.95;100.00
10668;BME280;5382;42.136;24.796;2023-04-22T10:13:59;99618.31;;;21.07;100.00
10668;BME280;5382;42.136;24.796;2023-04-22T10:16:28;99608.75;;;20.90;100.00
10668;BME280;5382;42.136;24.796;2023-04-22T10:18:57;99613.47;;;20.88;100.00
10668;BME280;5382;42.136;24.796;2023-04-22T10:21:25;99591.19;;;20.64;100.00
10668;BME280;5382;42.136;24.796;2023-04-22T10:23:53;99615.53;;;21.01;100.00
10668;BME280;5382;42.136;24.796;2023-04-22T10:26:42;99615.63;;;21.07;100.00
10668;BME280;5382;42.136;24.796;2023-04-22T10:29:14;99612.00;;;21.30;100.00
10668;BME280;5382;42.136;24.796;2023-04-22T10:31:42;99607.25;;;21.62;100.00
10668;BME280;5382;42.136;24.796;2023-04-22T10:34:11;99610.34;;;21.59;100.00
10668;BME280;5382;42.136;24.796;2023-04-22T10:36:55;99612.19;;;21.28;100.00
10668;BME280;5382;42.136;24.796;2023-04-22T10:39:23;99617.00;;;21.18;100.00
10668;BME280;5382;42.136;24.796;2023-04-22T10:41:53;99613.81;;;21.74;100.00
10668;BME280;5382;42.136;24.796;2023-04-22T10:44:22;99608.38;;;21.89;100.00
10668;BME280;5382;42.136;24.796;2023-04-22T10:46:59;99623.84;;;21.65;100.00
10668;BME280;5382;42.136;24.796;2023-04-22T10:49:28;99617.59;;;21.94;100.00
10668;BME280;5382;42.136;24.796;2023-04-22T10:51:57;99622.00;;;22.02;100.00
10668;BME280;5382;42.136;24.796;2023-04-22T10:54:55;99621.00;;;22.25;100.00
10668;BME280;5382;42.136;24.796;2023-04-22T10:57:28;99626.47;;;23.09;100.00
10668;BME280;5382;42.136;24.796;2023-04-22T11:00:16;99614.50;;;23.25;100.00
10668;BME280;5382;42.136;24.796;2023-04-22T11:02:43;99617.59;;;22.37;100.00
10668;BME280;5382;42.136;24.796;2023-04-22T11:05:22;99620.28;;;22.59;100.00
10668;BME280;5382;42.136;24.796;2023-04-22T11:07:52;99620.00;;;23.03;100.00
10668;BME280;5382;42.136;24.796;2023-04-22T11:10:34;99610.38;;;23.77;100.00
10668;BME280;5382;42.136;24.796;2023-04-22T11:13:05;99609.72;;;24.56;94.88
10668;BME280;5382;42.136;24.796;2023-04-22T11:15:36;99612.00;;;24.66;93.68
10668;BME280;5382;42.136;24.796;2023-04-22T11:18:08;99623.97;;;23.49;89.47
10668;BME280;5382;42.136;24.796;2023-04-22T11:20:35;99633.81;;;22.94;91.91
10668;BME280;5382;42.136;24.796;2023-04-22T11:23:02;99624.53;;;22.25;95.35
10668;BME280;5382;42.136;24.796;2023-04-22T11:25:29;99635.19;;;21.16;100.00
10668;BME280;5382;42.136;24.796;2023-04-22T11:27:57;99650.19;;;19.89;100.00
10668;BME280;5382;42.136;24.796;2023-04-22T11:30:25;99657.06;;;19.44;100.00
10668;BME280;5382;42.136;24.796;2023-04-22T11:32:55;99669.13;;;18.76;100.00
10668;BME280;5382;42.136;24.796;2023-04-22T11:35:24;99664.94;;;18.48;100.00
10668;BME280;5382;42.136;24.796;2023-04-22T11:37:53;99670.88;;;17.93;100.00
10668;BME280;5382;42.136;24.796;2023-04-22T11:40:22;99658.22;;;18.44;100.00
10668;BME280;5382;42.136;24.796;2023-04-22T11:42:51;99669.59;;;18.71;100.00
10668;BME280;5382;42.136;24.796;2023-04-22T11:45:18;99662.91;;;19.08;100.00
10668;BME280;5382;42.136;24.796;2023-04-22T11:47:46;99669.63;;;18.87;100.00
10668;BME280;5382;42.136;24.796;2023-04-22T11:50:17;99671.94;;;18.66;100.00
10668;BME280;5382;42.136;24.796;2023-04-22T11:52:49;99674.50;;;18.76;100.00
10668;BME280;5382;42.136;24.796;2023-04-22T11:55:17;99688.53;;;19.10;100.00
10668;BME280;5382;42.136;24.796;2023-04-22T11:57:51;99690.22;;;19.59;100.00
10668;BME280;5382;42.136;24.796;2023-04-22T12:00:18;99680.59;;;20.12;100.00
10668;BME280;5382;42.136;24.796;2023-04-22T12:02:54;99685.16;;;20.81;100.00
10668;BME280;5382;42.136;24.796;2023-04-22T12:05:33;99702.22;;;20.73;100.00
10668;BME280;5382;42.136;24.796;2023-04-22T12:08:00;99693.94;;;19.97;100.00
10668;BME280;5382;42.136;24.796;2023-04-22T12:10:28;99699.78;;;18.48;100.00
10668;BME280;5382;42.136;24.796;2023-04-22T12:12:55;99710.03;;;17.68;100.00
10668;BME280;5382;42.136;24.796;2023-04-22T12:15:22;99700.00;;;17.28;100.00
10668;BME280;5382;42.136;24.796;2023-04-22T12:17:49;99708.50;;;16.97;100.00
10668;BME280;5382;42.136;24.796;2023-04-22T12:20:17;99718.19;;;16.80;100.00
10668;BME280;5382;42.136;24.796;2023-04-22T12:22:45;99703.03;;;16.63;100.00
10668;BME280;5382;42.136;24.796;2023-04-22T12:25:16;99709.66;;;16.41;100.00
10668;BME280;5382;42.136;24.796;2023-04-22T12:27:44;99713.09;;;16.33;100.00
10668;BME280;5382;42.136;24.796;2023-04-22T12:30:12;99711.34;;;16.24;100.00
10668;BME280;5382;42.136;24.796;2023-04-22T12:32:39;99716.06;;;16.30;100.00
10668;BME280;5382;42.136;24.796;2023-04-22T12:35:06;99719.19;;;16.25;100.00
10668;BME280;5382;42.136;24.796;2023-04-22T12:37:33;99724.59;;;16.33;100.00
10668;BME280;5382;42.136;24.796;2023-04-22T12:40:02;99723.34;;;16.10;100.00
10668;BME280;5382;42.136;24.796;2023-04-22T12:42:31;99724.09;;;16.02;100.00
10668;BME280;5382;42.136;24.796;2023-04-22T12:44:58;99712.94;;;16.17;100.00
10668;BME280;5382;42.136;24.796;2023-04-22T12:47:25;99715.78;;;16.05;100.00
10668;BME280;5382;42.136;24.796;2023-04-22T12:49:51;99703.13;;;16.07;100.00
10668;BME280;5382;42.136;24.796;2023-04-22T12:52:18;99709.41;;;15.98;100.00
10668;BME280;5382;42.136;24.796;2023-04-22T12:54:45;99705.63;;;15.91;100.00